Welcome to Fly Ecuador Virtual

Fly Ecuador Virtual es una organización creada con el fin de brindar una plataforma que permita a los pilotos virtuales, principalmente ecuatorianos, tener un lugar donde registrar sus horas de vuelo, sus certificados de conocimiento adquiridos, las rutas que han volado y los destinos que han visitado. Así mismo, se busca ayudar a todos los pilotos a expandir su conocimiento sobre el mundo de la aviación real y virtual por medio de publicaciones, foros y cursos en línea.

A diferencia de las aerolíneas virtuales tradicionales, Fly Ecuador Virtual no simula las operaciones de una aerolínea del mundo real en específico. Un miembro de Fly Ecuador Virtual tiene toda la libertad de volar cualquier aeronave que opere en el espacio aéreo ecuatoriano real, en cualquier ruta, sea esta nacional o internacional, IFR o VFR, aeronaves monomotor, multimotor o helicópteros. Todo esto con el objetivo de expandir las operaciones virtuales dentro del espacio aéreo ecuatoriano, creando una comunidad en la que se compartan conocimientos y experiencias que beneficien a todos sus integrantes.

El crecimiento de Fly Ecuador Virtual depende de la participación conjunta de todos sus miembros, por este motivo se incentiva la participación en línea a través de los diferentes medios descritos más adelante en este sitio web.

 صورت وضعیت

خلبانان 77
هواپیماهای موجود در ناوگان 0
مسیرها 0
مجموع ساعت پروازی: 10514.52
مجموع پرواز ها 1684
پرواز های عادی 0
پرواز های چارتر 1731
درصد پرواز های عادی 0.00 %

 آخرین پرواز ها

کد کاربریخلبانمبداءمقصدتاریخمدت پرواز
ECU024Arturo Carvajal  SEGS  MRLB 2018-11-11 1.99
ECU085Julio Chila Barrezueta  SEQM  SKCG 2018-11-05 3.06
ECU018Luis Heredia  SVMI  SOCA 2018-11-03 2.15
ECU018Luis Heredia  SEGU  SPJC 2018-10-28 1.48

 خلبانان جدید

خلبانعضو شده
ECU087-Sahid Muñoz2018-06-02
ECU083-diego trujillo2017-12-18
ECU081-Carlos Torres Vasquez2017-12-06
ECU080-Rolando Soria2017-11-07
ECU084-YORLI MORALES2017-10-30

 Consultar METAR

METAR
SEGU - José Joaquín de Olmedo International Airport, Guayaquil, ECU
Distance from station: N 0mi, 0km
Updated: Wed, 21-Nov-2018 5:00am PST
Mostly Cloudy
Mostly Cloudy
 Wind from WSW
Wind: WSW 6 mph , 9 km/h
Temperature: 75°F , 24°C
Dew Point: 66°F , 19°C
Humidity: 74%
Barometer: 29.91 inHg , 1013 hPa
Clouds: Mostly Cloudy
Visibility: 6 miles , 10 km
Cloud details: Mostly Cloudy 3300 ft
Mostly Cloudy 10000 ft
2018/11/21 13:00 SEGU 211300Z 24005KT 190V290 9999 BKN033 BKN100 24/19 Q1013 NOSIG RMK A2993
 
SEQM - Aeropuerto Internacional Mariscal Sucre, ECU
Distance from station: NE 120mi, 200km
Updated: Wed, 21-Nov-2018 5:00am PST
Partly Cloudy
Partly Cloudy
 Wind from NE
Wind: NE 2 mph , 4 km/h
Temperature: 57°F , 14°C
Dew Point: 55°F , 13°C
Humidity: 94%
Barometer: 30.36 inHg , 1028 hPa
Clouds: Partly Cloudy
Visibility: 6 miles , 10 km
Cloud details: Few Clouds 600 ft
Partly Cloudy 2000 ft
2018/11/21 13:00 SEQM 211300Z 04002KT 9999 FEW006 SCT020 14/13 Q1028 NOSIG RMK A3037
 
SECU - Mariscal Lamar Airpor, ECU
Distance from station: ENE 80mi, 120km
Updated: Wed, 21-Nov-2018 5:00am PST
Overcast
Overcast
 Wind from NE
Wind: NE 3 mph , 6 km/h
Temperature: 55°F , 13°C
Dew Point: 52°F , 11°C
Humidity: 88%
Barometer: 30.36 inHg , 1028 hPa
Clouds: Overcast
Visibility: 6 miles , 10 km
Cloud details: Overcast 1500 ft
2018/11/21 13:00 SECU 211300Z 05003KT 9999 OVC015 13/11 Q1028
 
SELT - Cotopaxi International Airport, ECU
Distance from station: NW 21mi, 34km
Updated: Wed, 21-Nov-2018 5:00am PST
Partly Cloudy
Partly Cloudy
 Wind from SSW
Wind: SSW 2 mph , 4 km/h
Temperature: 57°F , 14°C
Dew Point: 50°F , 10°C
Humidity: 77%
Barometer: 30.45 inHg , 1031 hPa
Clouds: Partly Cloudy
Visibility: 6 miles , 10 km
Cloud details: Few Clouds 2000 ft
Partly Cloudy 3000 ft
2018/11/21 13:00 SELT 211300Z 21002KT 9999 FEW020 SCT030 14/10 Q1031
 
SEMT - Eloy Alfaro International Airport, ECU
Distance from station: SSE 70mi, 100km
Updated: Wed, 21-Nov-2018 5:00am PST
Partly Cloudy
Partly Cloudy
 Wind from SW
Wind: SW 7 mph , 11 km/h
Temperature: 73°F , 23°C
Dew Point: 68°F , 20°C
Humidity: 83%
Barometer: 29.94 inHg , 1014 hPa
Clouds: Partly Cloudy
Visibility: 6 miles , 10 km
Cloud details: Partly Cloudy 2000 ft
Partly Cloudy 2600 ft
2018/11/21 13:00 SEMT 211300Z 23006KT 9999 SCT020 SCT026 23/20 Q1014 RMK A2996

Metar display script from Saratoga-Weather.org

 توئیت ها

 نوتام

نوتامتاریخ



Fly Ecuador Virtual 2018 | System by VAM